Washington Grove, MD (20880)

8:29 AM EDT on September 01, 2014 (GMT -0400)
KMDGAITH12 | Change Station
CLOSE
Current Station
Personal Weather Station
Location: Gaithersburg, MD
Elevation: 467 ft
Nearby Weather Stations

Elev 467 ft 39.16 °N, 77.18 °W | Updated 6 minutes ago

Scattered Clouds
Scattered Clouds
74.1 °F
Feels Like 71 °F
N
0.0
Wind Variable Wind from South
Gusts 0.0 mph

Today
High -- | Low -- °F
--% Chance of Precip.
Yesterday
High -- | Low -- °F
Precip. -- in
6:37 AM 7:39 PM
Waxing Crescent, 40% visible
Pressure 30.08 in
Visibility 10.0 miles
Clouds Scattered Clouds 5000 ft
Heat Index 71 °F
Dew Point 74 °F
Humidity 98%
Rainfall 0.00 in
Snow Depth Not available.
UV 1 out of 12
Pollen 7.30 out of 12
Air Quality Not available.
Flu Activity Not available.
METAR KGAI 011215Z AUTO 00000KT 10SM SCT050 23/22 A3008 RMK AO1

More Conditions Fewer Conditions

Pressure 30.08 in
Visibility 10.0 miles
Clouds Scattered Clouds 5000 ft
Heat Index 71 °F
Dew Point 74 °F
Humidity 98%
Rainfall 0.00 in
Snow Depth Not available.
UV 1 out of 12
Pollen 7.30 out of 12
Air Quality Not available.
Flu Activity Not available.
METAR KGAI 011215Z AUTO 00000KT 10SM SCT050 23/22 A3008 RMK AO1

More Conditions Fewer Conditions

10-Day Weather Forecast

Almanac

Astronomy

Sep. 01, 2014 Rise Set
Actual Time 6:37 AM EDT 7:39 PM EDT
Civil Twilight 6:09 AM EDT 8:06 PM EDT
Nautical Twilight 5:37 AM EDT 8:39 PM EDT
Astronomical Twilight 5:03 AM EDT 9:13 PM EDT
Moon 1:18 PM EDT 11:41 PM EDT
Length of Visible Light 13h 56m
Length of Day
13h 01m
Tomorrow will be 2m 28s shorter.
Waxing Crescent, 40% of the Moon is Illuminated
Today
Waxing Crescent
Sep 2
First Quarter
Sep 8
Full
Sep 15
Last Quarter
Sep 24
New

Today's Extremes

State Highs State Lows

Community

WunderPhotos

Upload Photos

1,749,196 photos uploaded!

Nearby

Snow Depth

Station Depth Elevation
No new snow has been reported.

Earthquake Activity

City Distance Mag. Time & Date
No recent earthquake activity has been reported nearby.
Minimum magnitude displayed is 2.5.

Coastal Water Temperatures

Place Temperature
Washington, DC 79.0 °F
Baltimore, MD 81.0 °F
Solomons Island, MD 80.1 °F

Nearby Weather Stations